Newagen, Maine
Current Conditions -  °F | °C
As of 1:53 PM on Sunday 23 Nov 2014 (Local Time) from KIWI Reporting Station
Clear Clear  
Wind Chill: 54°   Ceiling: Unl
Heat Index: 54°   Visibility: 10mi
Dew Point: 38°   Wind: 7mph
Humidity: 55%   Direction: 220°SW
Pressure: 30.08"   Gusts: NA
Location:  43.79°N, 69.66°W
Report Text: KIWI 231853Z AUTO 22006KT 10SM CLR 12/03 A3008 RMK AO2 SLP186 T01220033
Loading
Personal Weather Stations






























Interactive Weather Map New forecast layout! Learn more

10-Day Weather Forecast

Advertisements
Track Severe Weather on mobile